Time,TemperatureF,DewpointF,PressureIn,WindDirection,WindDirectionDegrees,WindSpeedMPH,WindSpeedGustMPH,Humidity,HourlyPrecipIn,Conditions,Clouds,dailyrainin,SoftwareType,DateUTC
2013-01-09 00:06:00,33.8,33.3,30.07,WSW,247,3.7,-999.0,98,-99.99,,,0.00,Acu-Link.com,2013-01-09 06:06:00,
2013-01-09 00:21:00,34.0,33.5,30.07,SW,225,5.8,-999.0,98,-99.99,,,0.00,Acu-Link.com,2013-01-09 06:21:00,
2013-01-09 00:36:00,33.8,33.3,30.08,SW,225,3.2,-999.0,98,-99.99,,,0.00,Acu-Link.com,2013-01-09 06:36:00,
2013-01-09 00:52:00,32.9,32.4,30.10,East,90,1.7,-999.0,98,-99.99,,,0.00,Acu-Link.com,2013-01-09 06:52:00,
2013-01-09 01:07:00,31.6,31.1,30.11,SSE,157,2.2,-999.0,98,-99.99,,,0.00,Acu-Link.com,2013-01-09 07:07:00,
2013-01-09 01:22:00,28.9,28.4,30.12,SSE,157,3.2,-999.0,98,-99.99,,,0.00,Acu-Link.com,2013-01-09 07:22:00,
2013-01-09 01:37:00,28.4,27.9,30.13,South,180,2.7,-999.0,98,-99.99,,,0.00,Acu-Link.com,2013-01-09 07:37:00,
2013-01-09 01:53:00,30.0,29.5,30.15,SW,225,2.7,-999.0,98,-99.99,,,0.00,Acu-Link.com,2013-01-09 07:53:00,
2013-01-09 02:08:00,30.7,30.2,30.14,ENE,67,2.7,-999.0,98,-99.99,,,0.00,Acu-Link.com,2013-01-09 08:08:00,
2013-01-09 02:23:00,31.8,31.3,30.15,NNE,22,1.1,-999.0,98,-99.99,,,0.00,Acu-Link.com,2013-01-09 08:23:00,
2013-01-09 02:38:00,31.8,31.3,30.16,NNW,337,0.0,-999.0,98,-99.99,,,0.00,Acu-Link.com,2013-01-09 08:38:00,
2013-01-09 02:53:00,31.6,31.1,30.17,West,270,6.3,-999.0,98,-99.99,,,0.00,Acu-Link.com,2013-01-09 08:53:00,
2013-01-09 03:12:00,32.2,31.7,30.18,West,270,3.2,-999.0,98,-99.99,,,0.00,Acu-Link.com,2013-01-09 09:12:00,
2013-01-09 03:27:00,32.0,31.5,30.18,West,270,1.7,-999.0,98,-99.99,,,0.00,Acu-Link.com,2013-01-09 09:27:00,
2013-01-09 03:42:00,31.1,30.6,30.19,WNW,292,1.1,-999.0,98,-99.99,,,0.00,Acu-Link.com,2013-01-09 09:42:00,
2013-01-09 03:57:00,30.6,30.1,30.20,NNE,22,1.7,-999.0,98,-99.99,,,0.00,Acu-Link.com,2013-01-09 09:57:00,
2013-01-09 04:12:00,29.7,29.2,30.20,North,0,0.0,-999.0,98,-99.99,,,0.00,Acu-Link.com,2013-01-09 10:12:00,
2013-01-09 04:27:00,29.7,29.2,30.20,WNW,292,0.0,-999.0,98,-99.99,,,0.00,Acu-Link.com,2013-01-09 10:27:00,
2013-01-09 04:43:00,29.7,29.2,30.21,SSW,202,1.7,-999.0,98,-99.99,,,0.00,Acu-Link.com,2013-01-09 10:43:00,
2013-01-09 04:58:00,29.3,28.8,30.20,WSW,247,2.7,-999.0,98,-99.99,,,0.00,Acu-Link.com,2013-01-09 10:58:00,
2013-01-09 05:13:00,30.2,29.7,30.20,WSW,247,2.2,-999.0,98,-99.99,,,0.00,Acu-Link.com,2013-01-09 11:13:00,
2013-01-09 05:28:00,30.0,29.5,30.20,SW,225,2.2,-999.0,98,-99.99,,,0.00,Acu-Link.com,2013-01-09 11:28:00,
2013-01-09 05:43:00,30.4,29.9,30.20,SW,225,3.2,-999.0,98,-99.99,,,0.00,Acu-Link.com,2013-01-09 11:43:00,
2013-01-09 05:59:00,28.9,28.4,30.21,South,180,2.7,-999.0,98,-99.99,,,0.00,Acu-Link.com,2013-01-09 11:59:00,
2013-01-09 06:14:00,30.0,29.5,30.21,SW,225,5.3,-999.0,98,-99.99,,,0.00,Acu-Link.com,2013-01-09 12:14:00,
2013-01-09 06:29:00,28.4,27.9,30.21,SSW,202,3.2,-999.0,98,-99.99,,,0.00,Acu-Link.com,2013-01-09 12:29:00,
2013-01-09 06:44:00,30.6,30.1,30.23,WSW,247,2.7,-999.0,98,-99.99,,,0.00,Acu-Link.com,2013-01-09 12:44:00,
2013-01-09 06:59:00,31.3,30.8,30.24,SSW,202,3.7,-999.0,98,-99.99,,,0.00,Acu-Link.com,2013-01-09 12:59:00,
2013-01-09 07:15:00,32.2,31.7,30.24,West,270,4.2,-999.0,98,-99.99,,,0.00,Acu-Link.com,2013-01-09 13:15:00,
2013-01-09 07:30:00,32.7,32.2,30.27,SW,225,4.7,-999.0,98,-99.99,,,0.00,Acu-Link.com,2013-01-09 13:30:00,
2013-01-09 07:45:00,30.6,30.1,30.29,South,180,5.3,-999.0,98,-99.99,,,0.00,Acu-Link.com,2013-01-09 13:45:00,
2013-01-09 08:00:00,30.9,30.4,30.29,SSW,202,5.3,-999.0,98,-99.99,,,0.00,Acu-Link.com,2013-01-09 14:00:00,
2013-01-09 08:16:00,32.4,31.9,30.31,West,270,5.3,-999.0,98,-99.99,,,0.00,Acu-Link.com,2013-01-09 14:16:00,
2013-01-09 08:31:00,34.5,31.3,30.32,SSW,202,3.7,-999.0,88,-99.99,,,0.00,Acu-Link.com,2013-01-09 14:31:00,
2013-01-09 08:46:00,35.1,31.6,30.32,SW,225,3.7,-999.0,87,-99.99,,,0.00,Acu-Link.com,2013-01-09 14:46:00,
2013-01-09 09:01:00,34.9,31.4,30.34,WSW,247,4.7,-999.0,87,-99.99,,,0.00,Acu-Link.com,2013-01-09 15:01:00,
2013-01-09 09:16:00,34.3,31.1,30.34,West,270,2.7,-999.0,88,-99.99,,,0.00,Acu-Link.com,2013-01-09 15:16:00,
2013-01-09 09:32:00,35.2,31.7,30.35,NNW,337,1.1,-999.0,87,-99.99,,,0.00,Acu-Link.com,2013-01-09 15:32:00,
2013-01-09 09:47:00,35.2,32.0,30.35,West,270,3.2,-999.0,88,-99.99,,,0.00,Acu-Link.com,2013-01-09 15:47:00,
2013-01-09 10:02:00,36.7,32.9,30.35,WNW,292,2.2,-999.0,86,-99.99,,,0.00,Acu-Link.com,2013-01-09 16:02:00,
2013-01-09 10:17:00,36.9,33.1,30.36,WNW,292,3.7,-999.0,86,-99.99,,,0.00,Acu-Link.com,2013-01-09 16:17:00,
2013-01-09 10:32:00,37.9,33.5,30.35,West,270,2.7,-999.0,84,-99.99,,,0.00,Acu-Link.com,2013-01-09 16:32:00,
2013-01-09 10:48:00,38.5,34.4,30.36,East,90,3.7,-999.0,85,-99.99,,,0.00,Acu-Link.com,2013-01-09 16:48:00,
2013-01-09 11:03:00,40.5,35.1,30.35,SW,225,3.2,-999.0,81,-99.99,,,0.00,Acu-Link.com,2013-01-09 17:03:00,
2013-01-09 11:18:00,42.4,36.0,30.35,West,270,2.2,-999.0,78,-99.99,,,0.00,Acu-Link.com,2013-01-09 17:18:00,
2013-01-09 11:33:00,42.3,35.9,30.34,NE,45,1.7,-999.0,78,-99.99,,,0.00,Acu-Link.com,2013-01-09 17:33:00,
2013-01-09 11:48:00,45.0,36.9,30.34,NW,315,2.2,-999.0,73,-99.99,,,0.00,Acu-Link.com,2013-01-09 17:48:00,
2013-01-09 12:04:00,45.9,37.4,30.32,NE,45,2.7,-999.0,72,-99.99,,,0.00,Acu-Link.com,2013-01-09 18:04:00,
2013-01-09 12:19:00,46.6,38.1,30.31,NNW,337,2.7,-999.0,72,-99.99,,,0.00,Acu-Link.com,2013-01-09 18:19:00,
2013-01-09 12:34:00,47.3,38.4,30.30,North,0,3.2,-999.0,71,-99.99,,,0.00,Acu-Link.com,2013-01-09 18:34:00,
2013-01-09 12:49:00,48.0,38.7,30.29,NE,45,3.7,-999.0,70,-99.99,,,0.00,Acu-Link.com,2013-01-09 18:49:00,
2013-01-09 13:05:00,48.4,38.3,30.29,North,0,4.7,-999.0,68,-99.99,,,0.00,Acu-Link.com,2013-01-09 19:05:00,
2013-01-09 13:20:00,48.7,37.9,30.28,North,0,2.2,-999.0,66,-99.99,,,0.00,Acu-Link.com,2013-01-09 19:20:00,
2013-01-09 13:35:00,48.4,38.3,30.28,North,0,4.2,-999.0,68,-99.99,,,0.00,Acu-Link.com,2013-01-09 19:35:00,
2013-01-09 13:50:00,48.9,38.4,30.28,NNE,22,2.2,-999.0,67,-99.99,,,0.00,Acu-Link.com,2013-01-09 19:50:00,
2013-01-09 14:05:00,49.6,37.9,30.27,North,0,0.0,-999.0,64,-99.99,,,0.00,Acu-Link.com,2013-01-09 20:05:00,
2013-01-09 14:21:00,50.0,38.3,30.27,ENE,67,0.0,-999.0,64,-99.99,,,0.00,Acu-Link.com,2013-01-09 20:21:00,
2013-01-09 14:36:00,50.7,39.0,30.27,NNW,337,0.0,-999.0,64,-99.99,,,0.00,Acu-Link.com,2013-01-09 20:36:00,
2013-01-09 14:51:00,50.5,38.8,30.27,East,90,4.7,-999.0,64,-99.99,,,0.00,Acu-Link.com,2013-01-09 20:51:00,
2013-01-09 15:06:00,50.0,38.7,30.27,East,90,2.2,-999.0,65,-99.99,,,0.00,Acu-Link.com,2013-01-09 21:06:00,
2013-01-09 15:21:00,49.8,38.9,30.28,NNE,22,2.7,-999.0,66,-99.99,,,0.00,Acu-Link.com,2013-01-09 21:21:00,
2013-01-09 15:37:00,49.5,38.6,30.27,NE,45,3.7,-999.0,66,-99.99,,,0.00,Acu-Link.com,2013-01-09 21:37:00,
2013-01-09 15:52:00,49.5,38.6,30.26,NE,45,3.7,-999.0,66,-99.99,,,0.00,Acu-Link.com,2013-01-09 21:52:00,
2013-01-09 16:07:00,48.7,38.2,30.27,ESE,112,2.7,-999.0,67,-99.99,,,0.00,Acu-Link.com,2013-01-09 22:07:00,
2013-01-09 16:23:00,47.8,37.4,30.27,East,90,1.7,-999.0,67,-99.99,,,0.00,Acu-Link.com,2013-01-09 22:23:00,
2013-01-09 16:38:00,47.3,37.7,30.27,NE,45,2.2,-999.0,69,-99.99,,,0.00,Acu-Link.com,2013-01-09 22:38:00,
2013-01-09 16:53:00,45.9,37.7,30.28,South,180,1.1,-999.0,73,-99.99,,,0.00,Acu-Link.com,2013-01-09 22:53:00,
2013-01-09 17:08:00,45.0,36.9,30.28,SE,135,1.1,-999.0,73,-99.99,,,0.00,Acu-Link.com,2013-01-09 23:08:00,
2013-01-09 17:23:00,45.1,36.6,30.28,ESE,112,1.7,-999.0,72,-99.99,,,0.00,Acu-Link.com,2013-01-09 23:23:00,
2013-01-09 17:39:00,44.1,36.7,30.28,NE,45,0.0,-999.0,75,-99.99,,,0.00,Acu-Link.com,2013-01-09 23:39:00,
2013-01-09 17:54:00,42.8,35.1,30.29,South,180,2.2,-999.0,74,-99.99,,,0.00,Acu-Link.com,2013-01-09 23:54:00,
2013-01-09 18:09:00,44.8,34.9,30.29,SSE,157,2.7,-999.0,68,-99.99,,,0.00,Acu-Link.com,2013-01-10 00:09:00,
2013-01-09 18:24:00,43.3,34.2,30.29,South,180,2.2,-999.0,70,-99.99,,,0.00,Acu-Link.com,2013-01-10 00:24:00,
2013-01-09 18:39:00,43.5,32.9,30.30,SSE,157,4.2,-999.0,66,-99.99,,,0.00,Acu-Link.com,2013-01-10 00:39:00,
2013-01-09 18:55:00,44.2,33.6,30.30,SSE,157,5.8,-999.0,66,-99.99,,,0.00,Acu-Link.com,2013-01-10 00:55:00,
2013-01-09 19:10:00,44.6,34.0,30.31,SSE,157,6.3,-999.0,66,-99.99,,,0.00,Acu-Link.com,2013-01-10 01:10:00,
2013-01-09 19:25:00,43.7,33.5,30.30,South,180,5.8,-999.0,67,-99.99,,,0.00,Acu-Link.com,2013-01-10 01:25:00,
2013-01-09 19:40:00,44.1,34.2,30.30,South,180,7.3,-999.0,68,-99.99,,,0.00,Acu-Link.com,2013-01-10 01:40:00,
2013-01-09 19:56:00,44.1,34.6,30.30,SSE,157,6.8,-999.0,69,-99.99,,,0.00,Acu-Link.com,2013-01-10 01:56:00,
2013-01-09 20:11:00,44.1,34.2,30.29,SSE,157,5.8,-999.0,68,-99.99,,,0.00,Acu-Link.com,2013-01-10 02:11:00,
2013-01-09 20:26:00,43.9,34.0,30.29,SE,135,7.3,-999.0,68,-99.99,,,0.00,Acu-Link.com,2013-01-10 02:26:00,
2013-01-09 20:41:00,42.8,33.7,30.29,South,180,4.7,-999.0,70,-99.99,,,0.00,Acu-Link.com,2013-01-10 02:41:00,
2013-01-09 20:56:00,42.3,33.6,30.28,SSE,157,5.8,-999.0,71,-99.99,,,0.00,Acu-Link.com,2013-01-10 02:56:00,
2013-01-09 21:12:00,42.4,33.7,30.28,SSE,157,5.3,-999.0,71,-99.99,,,0.00,Acu-Link.com,2013-01-10 03:12:00,
2013-01-09 21:27:00,42.4,33.3,30.28,SSE,157,5.8,-999.0,70,-99.99,,,0.00,Acu-Link.com,2013-01-10 03:27:00,
2013-01-09 21:42:00,41.4,33.1,30.29,South,180,4.2,-999.0,72,-99.99,,,0.00,Acu-Link.com,2013-01-10 03:42:00,
2013-01-09 21:57:00,42.3,33.2,30.28,ESE,112,6.3,-999.0,70,-99.99,,,0.00,Acu-Link.com,2013-01-10 03:57:00,
2013-01-09 22:12:00,41.7,32.3,30.30,South,180,6.8,-999.0,69,-99.99,,,0.00,Acu-Link.com,2013-01-10 04:12:00,
2013-01-09 22:28:00,41.5,32.5,30.29,South,180,8.3,-999.0,70,-99.99,,,0.00,Acu-Link.com,2013-01-10 04:28:00,
2013-01-09 22:43:00,41.0,32.7,30.30,South,180,7.3,-999.0,72,-99.99,,,0.00,Acu-Link.com,2013-01-10 04:43:00,
2013-01-09 22:58:00,40.1,32.8,30.30,South,180,6.3,-999.0,75,-99.99,,,0.00,Acu-Link.com,2013-01-10 04:58:00,
2013-01-09 23:13:00,39.7,32.8,30.30,South,180,5.8,-999.0,76,-99.99,,,0.00,Acu-Link.com,2013-01-10 05:13:00,
2013-01-09 23:28:00,39.6,32.7,30.28,South,180,5.3,-999.0,76,-99.99,,,0.00,Acu-Link.com,2013-01-10 05:28:00,
2013-01-09 23:44:00,39.2,32.6,30.27,SSE,157,3.7,-999.0,77,-99.99,,,0.00,Acu-Link.com,2013-01-10 05:44:00,
2013-01-09 23:59:00,37.8,31.9,30.28,NNE,22,0.0,-999.0,79,-99.99,,,0.00,Acu-Link.com,2013-01-10 05:59:00,